• Join FlightAware (Why Join?)
  • Login
  • US Flag 
08:45AM EDT


 

Airport Tracker/Info


-or-


 

Live Flight TrackerFlight Track Log ✈ EJA396 ✈ 14-Jun-2013 ✈ KFOK - TXKF / BDA

Flight Track Log - Related Links

Times and Time Zones

All times are in EDT time to prevent confusion due to time zone crossing. See the EJA396 flight status page for this flight to view local times or setup timezone preferences in your user account.

Time Position Orientation Groundspeed Altitude Reporting Facility
EDT Latitude Longitude Course Direction KTS MPH feet Rate Location/Type
04:30PM 40.8789 -72.5500 166° South 172 198 3,500  Level Boston Center
04:31PM 40.8122 -72.5278 166° South 159 183 6,700 3,660 Climbing Boston Center
04:32PM 40.7289 -72.4922 162° South 222 255 10,900 3,540 Climbing Boston Center
04:33PM 40.6456 -72.4428 156° South 287 330 14,600 3,660 Climbing Boston Center
04:34PM 40.5372 -72.3772 155° Southeast 339 390 19,000 3,300 Climbing Boston Center
04:36PM 40.4200 -72.2078 132° Southeast 343 395 24,100 2,520 Climbing New York Center
04:37PM 40.3797 -72.0764 112° Southeast 362 417 26,200 1,740 Climbing New York Center
04:38PM 40.3375 -71.9339 111° Southeast 384 442 27,600 1,320 Climbing New York Center
04:39PM 40.2911 -71.7861 112° Southeast 422 486 28,900 1,140 Climbing New York Center
04:40PM 40.2422 -71.6331 113° Southeast 437 503 29,900 540 Climbing New York Center
04:41PM 40.1914 -71.4722 112° Southeast 456 525 30,000  Climbing New York Center
04:42PM 40.1381 -71.3089 113° Southeast 478 550 30,000  Level New York Center
04:43PM 40.0847 -71.1428 113° Southeast 485 558 30,000  Level New York Center
04:44PM 40.0331 -70.9744 112° Southeast 495 570 30,000  Level New York Center
04:45PM 39.9792 -70.8092 113° Southeast 495 570 30,000  Level New York Center
04:46PM 39.9250 -70.6439 113° Southeast 495 570 30,000  Level New York Center
04:47PM 39.8747 -70.4789 112° Southeast 495 570 30,000  Level New York Center
04:48PM 39.8306 -70.3467 113° Southeast 495 570 30,000  Level New York Center
04:49PM 39.7631 -70.1528 114° Southeast 488 562 30,000  Level New York Center
04:50PM 39.7100 -69.9939 113° Southeast 494 568 30,000  Level New York Center
04:51PM 39.6656 -69.8567 113° Southeast 482 555 30,000  Level New York Center
04:52PM 39.6142 -69.6931 112° Southeast 477 549 30,000  Level New York Center
04:53PM 39.5606 -69.5350 114° Southeast 477 549 30,000  Level New York Center
04:54PM 39.5067 -69.3797 114° Southeast 477 549 30,000  Level New York Center
04:55PM 39.4528 -69.2142 113° Southeast 482 555 30,000  Level New York Center
04:56PM 39.3964 -69.0647 116° Southeast 476 548 30,000  Level New York Center
04:57PM 39.3442 -68.9050 113° Southeast 484 557 30,000  Level New York Center
04:58PM 39.2894 -68.7456 114° Southeast 477 549 30,000  Level New York Center
04:59PM 39.2347 -68.5942 115° Southeast 477 549 30,000  Level New York Center
05:00PM 39.1797 -68.4350 114° Southeast 483 556 30,000  Level New York Center
05:01PM 39.1286 -68.2761 112° Southeast 483 556 30,000  Level New York Center
05:02PM 39.0711 -68.1228 116° Southeast 478 550 30,000  Level New York Center
05:03PM 39.0156 -67.9700 115° Southeast 483 556 30,000  Level New York Center
05:04PM 38.9575 -67.8144 116° Southeast 478 550 30,000  Level New York Center
05:05PM 38.9036 -67.6567 114° Southeast 478 550 30,000  Level New York Center
05:07PM 38.8833 -67.5667 157° South 427 491 30,000  Level New York Oceanic (ODAPS)
05:13PM 38.0053 -67.0932 157° South 427 491 30,000  Level FlightAware Transoceanic
05:14PM 37.8954 -67.0348 157° South 427 491 30,000  Level FlightAware Transoceanic
05:15PM 37.7855 -66.9766 157° South 427 491 30,000  Level FlightAware Transoceanic
05:16PM 37.6756 -66.9186 157° South 427 491 30,000  Level FlightAware Transoceanic
05:17PM 37.5656 -66.8607 157° South 427 491 30,000  Level FlightAware Transoceanic
05:18PM 37.4556 -66.8030 157° South 427 491 30,000  Level FlightAware Transoceanic
05:19PM 37.3456 -66.7455 157° South 427 491 30,000  Level FlightAware Transoceanic
05:20PM 37.2355 -66.6881 157° South 427 491 30,000  Level FlightAware Transoceanic
05:21PM 37.1254 -66.6310 158° South 427 491 30,000  Level FlightAware Transoceanic
05:22PM 37.0153 -66.5740 158° South 427 491 30,000  Level FlightAware Transoceanic
05:23PM 36.9052 -66.5171 158° South 427 491 30,000  Level FlightAware Transoceanic
05:24PM 36.7950 -66.4604 158° South 427 491 30,000  Level FlightAware Transoceanic
05:25PM 36.6848 -66.4039 158° South 427 491 30,000  Level FlightAware Transoceanic
05:26PM 36.5746 -66.3475 158° South 427 491 30,000  Level FlightAware Transoceanic
05:27PM 36.4644 -66.2913 158° South 427 491 30,000  Level FlightAware Transoceanic
05:28PM 36.3541 -66.2353 158° South 427 491 30,000  Level FlightAware Transoceanic
05:29PM 36.2438 -66.1794 158° South 427 491 30,000  Level FlightAware Transoceanic
05:30PM 36.1335 -66.1236 158° South 427 491 30,000  Level FlightAware Transoceanic
05:31PM 36.0231 -66.0681 158° South 427 491 30,000  Level FlightAware Transoceanic
05:32PM 35.9128 -66.0126 158° South 427 491 30,000  Level FlightAware Transoceanic
05:33PM 35.8024 -65.9574 158° South 427 491 30,000  Level FlightAware Transoceanic
05:34PM 35.6919 -65.9023 158° South 427 491 30,000  Level FlightAware Transoceanic
05:35PM 35.5815 -65.8473 158° South 427 491 30,000  Level FlightAware Transoceanic
05:36PM 35.4710 -65.7925 158° South 427 491 30,000  Level FlightAware Transoceanic
05:37PM 35.3605 -65.7378 158° South 427 491 30,000  Level FlightAware Transoceanic
05:37PM 35.2500 -65.6833 164° South 415 478 30,000  Level New York Oceanic (ODAPS)
05:38PM 35.2500 -65.6833 164° South 427 491 30,000  Level FlightAware Transoceanic
05:39PM 35.1300 -65.6403 164° South 427 491 30,000  Level FlightAware Transoceanic
05:40PM 35.0100 -65.5974 164° South 427 491 30,000  Level FlightAware Transoceanic
05:41PM 34.8900 -65.5546 164° South 427 491 30,000  Level FlightAware Transoceanic
05:42PM 34.7700 -65.5119 164° South 427 491 30,000  Level FlightAware Transoceanic
05:43PM 34.6500 -65.4694 164° South 427 491 30,000  Level FlightAware Transoceanic
05:44PM 34.4745 -65.4074 164° South 415 478 30,000  Level FlightAware Transoceanic
05:45PM 34.3637 -65.3684 164° South 415 478 30,000  Level FlightAware Transoceanic
05:46PM 34.2528 -65.3295 164° South 415 478 30,000  Level FlightAware Transoceanic
05:47PM 34.1420 -65.2907 164° South 415 478 30,000  Level FlightAware Transoceanic
05:48PM 34.0311 -65.2520 164° South 415 478 30,000  Level FlightAware Transoceanic
05:49PM 33.9202 -65.2134 164° South 415 478 30,000  Level FlightAware Transoceanic
05:50PM 33.8093 -65.1749 164° South 415 478 30,000  Level FlightAware Transoceanic
05:51PM 33.6984 -65.1365 164° South 415 478 30,000  Level FlightAware Transoceanic
05:52PM 33.5875 -65.0982 164° South 415 478 30,000  Level FlightAware Transoceanic
05:53PM 33.4766 -65.0600 164° South 415 478 30,000 -4,800 Level FlightAware Transoceanic
05:53PM 35.2500 -65.6833 160° South 418 481 25,000  Descending New York Oceanic (ODAPS)
05:54PM 33.3657 -65.0219 164° South 415 478 30,000 2,520 Climbing FlightAware Transoceanic
05:55PM 33.2547 -64.9839 164° South 415 478 30,000 -7,260 Level FlightAware Transoceanic
05:55PM 35.2500 -65.6833 160° South 418 481 20,000  Descending New York Oceanic (ODAPS)
05:56PM 33.1437 -64.9460 164° South 415 478 30,000 6,180 Climbing FlightAware Transoceanic
05:57PM 33.0328 -64.9082 164° South 415 478 30,000 -8,040 Level FlightAware Transoceanic
05:57PM 35.2500 -65.6833 160° South 418 481 15,000  Descending New York Oceanic (ODAPS)
05:58PM 32.9218 -64.8705 164° South 415 478 30,000 8,820 Climbing FlightAware Transoceanic
05:59PM 32.9558 -64.6724 160° South 418 481 25,000 -2,520 Descending FlightAware Transoceanic
06:00PM 32.8514 -64.6277 160° South 418 481 25,000 -10,500 Level FlightAware Transoceanic
06:00PM 35.2500 -65.6833 160° South 418 481 10,000 -5,040 Descending New York Oceanic (ODAPS)
06:01PM 33.0704 -64.7215 160° South 418 481 20,000  Climbing FlightAware Transoceanic
06:01PM 35.2500 -65.6833 161° South 418 481 10,000  Descending New York Oceanic (ODAPS)
06:02PM 32.9794 -64.6825 160° South 418 481 20,000 9,780 Climbing FlightAware Transoceanic
06:03PM 32.8885 -64.6435 160° South 418 481 20,000 -8,520 Level FlightAware Transoceanic
06:03PM 35.2500 -65.6833 161° South 418 481 5,300 -19,200 Descending New York Oceanic (ODAPS)
06:03PM 35.2500 -65.6833 161° South 418 481 5,000 36,360 Descending New York Oceanic (ODAPS)
06:04PM 32.7975 -64.6047 160° South 418 481 15,000 8,160 Climbing FlightAware Transoceanic
06:05PM 32.7064 -64.5659 160° South 418 481 15,000 -2,520 Level FlightAware Transoceanic
06:06PM 32.6154 -64.5272 160° South 418 481 10,000 -2,520 Descending FlightAware Transoceanic
06:07PM 32.5244 -64.4885 160° South 418 481 10,000  Level FlightAware Transoceanic
06:08PM 34.7200 -65.4529 160° South  Level FlightAware Approximate
06:09PM 34.6298 -65.4125 160° South  Level FlightAware Approximate
06:10PM 34.6882 -65.4365 160° South  Level FlightAware Approximate
06:11PM 34.5979 -65.3964 160° South  Level FlightAware Approximate
06:12PM 34.5076 -65.3563 160° South  Level FlightAware Approximate
06:13PM 34.4173 -65.3164 160° South  Level FlightAware Approximate
06:14PM 34.3270 -65.2765 160° South  Level FlightAware Approximate